sensor_id;sensor_type;location;lat;lon;timestamp;temperature;humidity
51867;DHT22;52862;52.504;13.480;2023-04-01T00:01:39;10.40;99.90
51867;DHT22;52862;52.504;13.480;2023-04-01T00:04:05;10.40;99.90
51867;DHT22;52862;52.504;13.480;2023-04-01T00:09:00;9.60;99.90
51867;DHT22;52862;52.504;13.480;2023-04-01T00:11:26;9.90;99.90
51867;DHT22;52862;52.504;13.480;2023-04-01T00:13:53;9.90;99.90
51867;DHT22;52862;52.504;13.480;2023-04-01T00:16:20;9.90;99.90
51867;DHT22;52862;52.504;13.480;2023-04-01T00:18:49;9.80;99.90
51867;DHT22;52862;52.504;13.480;2023-04-01T00:21:17;9.70;99.90
51867;DHT22;52862;52.504;13.480;2023-04-01T00:23:44;9.80;99.90
51867;DHT22;52862;52.504;13.480;2023-04-01T00:26:11;9.90;99.90
51867;DHT22;52862;52.504;13.480;2023-04-01T00:28:40;9.90;99.90
51867;DHT22;52862;52.504;13.480;2023-04-01T00:31:08;9.90;99.90
51867;DHT22;52862;52.504;13.480;2023-04-01T00:33:35;10.00;99.90
51867;DHT22;52862;52.504;13.480;2023-04-01T00:38:35;10.10;99.90
51867;DHT22;52862;52.504;13.480;2023-04-01T00:41:02;10.00;99.90
51867;DHT22;52862;52.504;13.480;2023-04-01T00:43:29;9.90;99.90
51867;DHT22;52862;52.504;13.480;2023-04-01T00:45:56;10.00;99.90
51867;DHT22;52862;52.504;13.480;2023-04-01T00:48:26;10.00;99.90
51867;DHT22;52862;52.504;13.480;2023-04-01T00:50:56;10.00;99.90
51867;DHT22;52862;52.504;13.480;2023-04-01T00:53:24;10.10;99.90
51867;DHT22;52862;52.504;13.480;2023-04-01T00:55:55;10.20;99.90
51867;DHT22;52862;52.504;13.480;2023-04-01T00:58:24;10.20;99.90
51867;DHT22;52862;52.504;13.480;2023-04-01T01:00:55;10.10;99.90
51867;DHT22;52862;52.504;13.480;2023-04-01T01:03:22;10.40;99.90
51867;DHT22;52862;52.504;13.480;2023-04-01T01:06:08;10.10;99.90
51867;DHT22;52862;52.504;13.480;2023-04-01T01:11:32;10.10;99.90
51867;DHT22;52862;52.504;13.480;2023-04-01T01:14:16;10.10;99.90
51867;DHT22;52862;52.504;13.480;2023-04-01T01:16:47;10.10;99.90
51867;DHT22;52862;52.504;13.480;2023-04-01T01:19:35;10.10;99.90
51867;DHT22;52862;52.504;13.480;2023-04-01T01:22:16;9.80;99.90
51867;DHT22;52862;52.504;13.480;2023-04-01T01:24:55;10.10;99.90
51867;DHT22;52862;52.504;13.480;2023-04-01T01:27:27;10.70;99.90
51867;DHT22;52862;52.504;13.480;2023-04-01T01:33:09;10.40;99.90
51867;DHT22;52862;52.504;13.480;2023-04-01T01:35:44;9.20;99.90
51867;DHT22;52862;52.504;13.480;2023-04-01T01:38:14;10.10;99.90
51867;DHT22;52862;52.504;13.480;2023-04-01T01:40:44;10.10;99.90
51867;DHT22;52862;52.504;13.480;2023-04-01T01:43:15;10.00;99.90
51867;DHT22;52862;52.504;13.480;2023-04-01T01:45:47;9.50;99.90
51867;DHT22;52862;52.504;13.480;2023-04-01T01:48:16;9.60;99.90
51867;DHT22;52862;52.504;13.480;2023-04-01T01:50:45;10.00;99.90
51867;DHT22;52862;52.504;13.480;2023-04-01T01:53:12;10.10;99.90
51867;DHT22;52862;52.504;13.480;2023-04-01T01:55:41;10.50;99.90
51867;DHT22;52862;52.504;13.480;2023-04-01T01:58:11;9.80;99.90
51867;DHT22;52862;52.504;13.480;2023-04-01T02:00:41;10.00;99.90
51867;DHT22;52862;52.504;13.480;2023-04-01T02:03:10;10.20;99.90
51867;DHT22;52862;52.504;13.480;2023-04-01T02:05:37;10.20;99.90
51867;DHT22;52862;52.504;13.480;2023-04-01T02:08:07;9.90;99.90
51867;DHT22;52862;52.504;13.480;2023-04-01T02:10:37;9.80;99.90
51867;DHT22;52862;52.504;13.480;2023-04-01T02:13:11;10.00;99.90
51867;DHT22;52862;52.504;13.480;2023-04-01T02:15:42;9.70;99.90
51867;DHT22;52862;52.504;13.480;2023-04-01T02:18:12;10.10;99.90
51867;DHT22;52862;52.504;13.480;2023-04-01T02:20:40;9.90;99.90
51867;DHT22;52862;52.504;13.480;2023-04-01T02:23:09;9.90;99.90
51867;DHT22;52862;52.504;13.480;2023-04-01T02:25:37;9.30;99.90
51867;DHT22;52862;52.504;13.480;2023-04-01T02:28:06;9.90;99.90
51867;DHT22;52862;52.504;13.480;2023-04-01T02:30:35;9.50;99.90
51867;DHT22;52862;52.504;13.480;2023-04-01T02:33:03;9.90;99.90
51867;DHT22;52862;52.504;13.480;2023-04-01T02:35:30;9.90;99.90
51867;DHT22;52862;52.504;13.480;2023-04-01T02:37:59;11.90;99.90
51867;DHT22;52862;52.504;13.480;2023-04-01T02:40:27;10.00;99.90
51867;DHT22;52862;52.504;13.480;2023-04-01T02:42:54;9.90;99.90
51867;DHT22;52862;52.504;13.480;2023-04-01T02:45:21;10.00;99.90
51867;DHT22;52862;52.504;13.480;2023-04-01T02:47:47;10.00;99.90
51867;DHT22;52862;52.504;13.480;2023-04-01T02:50:15;9.70;99.90
51867;DHT22;52862;52.504;13.480;2023-04-01T02:52:41;8.70;99.90
51867;DHT22;52862;52.504;13.480;2023-04-01T02:55:09;10.20;99.90
51867;DHT22;52862;52.504;13.480;2023-04-01T02:57:36;9.90;99.90
51867;DHT22;52862;52.504;13.480;2023-04-01T03:00:03;10.00;99.90
51867;DHT22;52862;52.504;13.480;2023-04-01T03:02:33;10.00;99.90
51867;DHT22;52862;52.504;13.480;2023-04-01T03:05:03;9.90;99.90
51867;DHT22;52862;52.504;13.480;2023-04-01T03:07:29;10.10;99.90
51867;DHT22;52862;52.504;13.480;2023-04-01T03:09:56;10.00;99.90
51867;DHT22;52862;52.504;13.480;2023-04-01T03:12:23;10.10;99.90
51867;DHT22;52862;52.504;13.480;2023-04-01T03:14:50;10.10;99.90
51867;DHT22;52862;52.504;13.480;2023-04-01T03:17:16;10.10;99.90
51867;DHT22;52862;52.504;13.480;2023-04-01T03:19:43;10.10;99.90
51867;DHT22;52862;52.504;13.480;2023-04-01T03:22:11;10.00;99.90
51867;DHT22;52862;52.504;13.480;2023-04-01T03:24:37;10.10;99.90
51867;DHT22;52862;52.504;13.480;2023-04-01T03:27:04;10.10;99.90
51867;DHT22;52862;52.504;13.480;2023-04-01T03:29:30;10.20;99.90
51867;DHT22;52862;52.504;13.480;2023-04-01T03:31:58;10.10;99.90
51867;DHT22;52862;52.504;13.480;2023-04-01T03:34:24;10.10;99.90
51867;DHT22;52862;52.504;13.480;2023-04-01T03:36:51;10.10;99.90
51867;DHT22;52862;52.504;13.480;2023-04-01T03:39:18;10.10;99.90
51867;DHT22;52862;52.504;13.480;2023-04-01T03:41:45;10.10;99.90
51867;DHT22;52862;52.504;13.480;2023-04-01T03:44:12;10.30;99.90
51867;DHT22;52862;52.504;13.480;2023-04-01T03:46:39;10.20;99.90
51867;DHT22;52862;52.504;13.480;2023-04-01T03:49:07;10.10;99.90
51867;DHT22;52862;52.504;13.480;2023-04-01T03:51:37;10.20;99.90
51867;DHT22;52862;52.504;13.480;2023-04-01T03:54:04;10.10;99.90
51867;DHT22;52862;52.504;13.480;2023-04-01T03:56:31;10.20;99.90
51867;DHT22;52862;52.504;13.480;2023-04-01T04:01:24;10.20;99.90
51867;DHT22;52862;52.504;13.480;2023-04-01T04:03:51;10.20;99.90
51867;DHT22;52862;52.504;13.480;2023-04-01T04:06:19;10.20;99.90
51867;DHT22;52862;52.504;13.480;2023-04-01T04:08:46;10.20;99.90
51867;DHT22;52862;52.504;13.480;2023-04-01T04:11:13;10.20;99.90
51867;DHT22;52862;52.504;13.480;2023-04-01T04:13:40;10.20;99.90
51867;DHT22;52862;52.504;13.480;2023-04-01T04:16:08;10.20;99.90
51867;DHT22;52862;52.504;13.480;2023-04-01T04:18:35;10.20;99.90
51867;DHT22;52862;52.504;13.480;2023-04-01T04:21:03;10.20;99.90
51867;DHT22;52862;52.504;13.480;2023-04-01T04:23:30;10.20;99.90
51867;DHT22;52862;52.504;13.480;2023-04-01T04:26:01;10.20;99.90
51867;DHT22;52862;52.504;13.480;2023-04-01T04:28:28;10.40;99.90
51867;DHT22;52862;52.504;13.480;2023-04-01T04:30:55;10.10;99.90
51867;DHT22;52862;52.504;13.480;2023-04-01T04:33:22;10.10;99.90
51867;DHT22;52862;52.504;13.480;2023-04-01T04:35:50;12.20;99.90
51867;DHT22;52862;52.504;13.480;2023-04-01T04:38:17;10.20;99.90
51867;DHT22;52862;52.504;13.480;2023-04-01T04:40:44;10.10;99.90
51867;DHT22;52862;52.504;13.480;2023-04-01T04:43:12;10.10;99.90
51867;DHT22;52862;52.504;13.480;2023-04-01T04:45:39;10.30;99.90
51867;DHT22;52862;52.504;13.480;2023-04-01T04:48:07;10.20;99.90
51867;DHT22;52862;52.504;13.480;2023-04-01T04:50:34;9.90;99.90
51867;DHT22;52862;52.504;13.480;2023-04-01T04:53:04;10.10;99.90
51867;DHT22;52862;52.504;13.480;2023-04-01T04:55:35;10.10;99.90
51867;DHT22;52862;52.504;13.480;2023-04-01T04:58:02;10.50;99.90
51867;DHT22;52862;52.504;13.480;2023-04-01T05:00:32;10.40;99.90
51867;DHT22;52862;52.504;13.480;2023-04-01T05:02:58;10.20;99.90
51867;DHT22;52862;52.504;13.480;2023-04-01T05:05:25;9.90;99.90
51867;DHT22;52862;52.504;13.480;2023-04-01T05:07:52;10.30;99.90
51867;DHT22;52862;52.504;13.480;2023-04-01T05:10:19;10.40;99.90
51867;DHT22;52862;52.504;13.480;2023-04-01T05:12:46;10.20;99.90
51867;DHT22;52862;52.504;13.480;2023-04-01T05:15:14;10.30;99.90
51867;DHT22;52862;52.504;13.480;2023-04-01T05:17:41;10.10;99.90
51867;DHT22;52862;52.504;13.480;2023-04-01T05:20:08;10.40;99.90
51867;DHT22;52862;52.504;13.480;2023-04-01T05:22:35;10.10;99.90
51867;DHT22;52862;52.504;13.480;2023-04-01T05:25:01;10.10;99.90
51867;DHT22;52862;52.504;13.480;2023-04-01T05:27:28;10.10;99.90
51867;DHT22;52862;52.504;13.480;2023-04-01T05:29:54;10.50;99.90
51867;DHT22;52862;52.504;13.480;2023-04-01T05:32:22;10.40;99.90
51867;DHT22;52862;52.504;13.480;2023-04-01T05:34:50;10.10;99.90
51867;DHT22;52862;52.504;13.480;2023-04-01T05:37:16;10.00;99.90
51867;DHT22;52862;52.504;13.480;2023-04-01T05:39:43;10.20;99.90
51867;DHT22;52862;52.504;13.480;2023-04-01T05:42:14;10.20;99.90
51867;DHT22;52862;52.504;13.480;2023-04-01T05:44:53;10.20;99.90
51867;DHT22;52862;52.504;13.480;2023-04-01T05:47:25;10.20;99.90
51867;DHT22;52862;52.504;13.480;2023-04-01T05:49:53;9.90;99.90
51867;DHT22;52862;52.504;13.480;2023-04-01T05:52:25;10.50;99.90
51867;DHT22;52862;52.504;13.480;2023-04-01T05:55:14;10.20;99.90
51867;DHT22;52862;52.504;13.480;2023-04-01T05:57:45;10.30;99.90
51867;DHT22;52862;52.504;13.480;2023-04-01T06:00:13;10.20;99.90
51867;DHT22;52862;52.504;13.480;2023-04-01T06:06:13;10.20;99.90
51867;DHT22;52862;52.504;13.480;2023-04-01T06:08:42;9.80;99.90
51867;DHT22;52862;52.504;13.480;2023-04-01T06:11:19;10.30;99.90
51867;DHT22;52862;52.504;13.480;2023-04-01T06:14:01;10.60;99.90
51867;DHT22;52862;52.504;13.480;2023-04-01T06:16:38;10.30;99.90
51867;DHT22;52862;52.504;13.480;2023-04-01T06:19:20;10.30;99.90
51867;DHT22;52862;52.504;13.480;2023-04-01T06:25:07;10.30;99.90
51867;DHT22;52862;52.504;13.480;2023-04-01T06:27:52;10.40;99.90
51867;DHT22;52862;52.504;13.480;2023-04-01T06:30:34;10.30;99.90
51867;DHT22;52862;52.504;13.480;2023-04-01T06:33:25;10.40;99.90
51867;DHT22;52862;52.504;13.480;2023-04-01T06:36:12;10.40;99.90
51867;DHT22;52862;52.504;13.480;2023-04-01T06:39:08;10.30;99.90
51867;DHT22;52862;52.504;13.480;2023-04-01T06:44:52;10.50;99.90
51867;DHT22;52862;52.504;13.480;2023-04-01T06:47:32;10.40;99.90
51867;DHT22;52862;52.504;13.480;2023-04-01T06:50:07;10.50;99.90
51867;DHT22;52862;52.504;13.480;2023-04-01T06:52:44;9.80;99.90
51867;DHT22;52862;52.504;13.480;2023-04-01T06:55:24;10.30;99.90
51867;DHT22;52862;52.504;13.480;2023-04-01T06:57:54;10.50;99.90
51867;DHT22;52862;52.504;13.480;2023-04-01T07:00:28;9.90;99.90
51867;DHT22;52862;52.504;13.480;2023-04-01T07:03:02;10.40;99.90
51867;DHT22;52862;52.504;13.480;2023-04-01T07:05:33;10.00;99.90
51867;DHT22;52862;52.504;13.480;2023-04-01T07:08:04;10.30;99.90
51867;DHT22;52862;52.504;13.480;2023-04-01T07:10:35;10.50;99.90
51867;DHT22;52862;52.504;13.480;2023-04-01T07:13:15;10.40;99.90
51867;DHT22;52862;52.504;13.480;2023-04-01T07:15:47;10.50;99.90
51867;DHT22;52862;52.504;13.480;2023-04-01T07:18:17;10.60;99.90
51867;DHT22;52862;52.504;13.480;2023-04-01T07:20:46;9.70;99.90
51867;DHT22;52862;52.504;13.480;2023-04-01T07:23:20;10.50;99.90
51867;DHT22;52862;52.504;13.480;2023-04-01T07:25:52;10.70;99.90
51867;DHT22;52862;52.504;13.480;2023-04-01T07:28:21;10.40;99.90
51867;DHT22;52862;52.504;13.480;2023-04-01T07:30:56;10.40;99.90
51867;DHT22;52862;52.504;13.480;2023-04-01T07:33:33;10.00;99.90
51867;DHT22;52862;52.504;13.480;2023-04-01T07:36:06;10.70;99.90
51867;DHT22;52862;52.504;13.480;2023-04-01T07:38:41;10.70;99.90
51867;DHT22;52862;52.504;13.480;2023-04-01T07:41:18;10.90;99.90
51867;DHT22;52862;52.504;13.480;2023-04-01T07:43:58;10.50;99.90
51867;DHT22;52862;52.504;13.480;2023-04-01T07:46:48;10.70;99.90
51867;DHT22;52862;52.504;13.480;2023-04-01T07:49:18;10.80;99.90
51867;DHT22;52862;52.504;13.480;2023-04-01T07:51:56;13.70;99.90
51867;DHT22;52862;52.504;13.480;2023-04-01T07:54:32;10.90;99.90
51867;DHT22;52862;52.504;13.480;2023-04-01T07:57:05;11.00;99.90
51867;DHT22;52862;52.504;13.480;2023-04-01T07:59:42;10.40;99.90
51867;DHT22;52862;52.504;13.480;2023-04-01T08:02:22;11.30;99.90
51867;DHT22;52862;52.504;13.480;2023-04-01T08:04:59;11.40;99.90
51867;DHT22;52862;52.504;13.480;2023-04-01T08:07:32;11.00;99.90
51867;DHT22;52862;52.504;13.480;2023-04-01T08:10:04;11.10;99.90
51867;DHT22;52862;52.504;13.480;2023-04-01T08:12:45;11.00;99.90
51867;DHT22;52862;52.504;13.480;2023-04-01T08:15:20;11.10;99.90
51867;DHT22;52862;52.504;13.480;2023-04-01T08:17:56;11.20;99.90
51867;DHT22;52862;52.504;13.480;2023-04-01T08:20:29;11.00;99.90
51867;DHT22;52862;52.504;13.480;2023-04-01T08:23:01;10.70;99.90
51867;DHT22;52862;52.504;13.480;2023-04-01T08:25:32;10.60;99.90
51867;DHT22;52862;52.504;13.480;2023-04-01T08:28:04;10.40;99.90
51867;DHT22;52862;52.504;13.480;2023-04-01T08:30:40;10.30;99.90
51867;DHT22;52862;52.504;13.480;2023-04-01T08:33:15;10.30;99.90
51867;DHT22;52862;52.504;13.480;2023-04-01T08:35:48;10.30;99.90
51867;DHT22;52862;52.504;13.480;2023-04-01T08:38:18;10.30;99.90
51867;DHT22;52862;52.504;13.480;2023-04-01T08:44:31;10.10;99.90
51867;DHT22;52862;52.504;13.480;2023-04-01T08:47:15;9.50;99.90
51867;DHT22;52862;52.504;13.480;2023-04-01T08:52:52;10.20;99.90
51867;DHT22;52862;52.504;13.480;2023-04-01T08:55:44;10.20;99.90
51867;DHT22;52862;52.504;13.480;2023-04-01T08:58:27;10.20;99.90
51867;DHT22;52862;52.504;13.480;2023-04-01T09:01:08;10.30;99.90
51867;DHT22;52862;52.504;13.480;2023-04-01T09:03:51;10.40;99.90
51867;DHT22;52862;52.504;13.480;2023-04-01T09:06:26;10.40;99.90
51867;DHT22;52862;52.504;13.480;2023-04-01T09:09:19;10.50;99.90
51867;DHT22;52862;52.504;13.480;2023-04-01T09:12:13;11.20;99.90
51867;DHT22;52862;52.504;13.480;2023-04-01T09:15:07;11.20;99.90
51867;DHT22;52862;52.504;13.480;2023-04-01T09:18:12;10.60;99.90
51867;DHT22;52862;52.504;13.480;2023-04-01T09:20:49;10.90;99.90
51867;DHT22;52862;52.504;13.480;2023-04-01T09:23:34;10.70;99.90
51867;DHT22;52862;52.504;13.480;2023-04-01T09:26:18;10.80;99.90
51867;DHT22;52862;52.504;13.480;2023-04-01T09:29:02;10.70;99.90
51867;DHT22;52862;52.504;13.480;2023-04-01T09:31:57;10.80;99.90
51867;DHT22;52862;52.504;13.480;2023-04-01T09:34:51;10.80;99.90
51867;DHT22;52862;52.504;13.480;2023-04-01T09:37:21;10.80;99.90
51867;DHT22;52862;52.504;13.480;2023-04-01T09:40:15;10.50;99.90
51867;DHT22;52862;52.504;13.480;2023-04-01T09:43:02;10.80;99.90
51867;DHT22;52862;52.504;13.480;2023-04-01T09:45:41;10.90;99.90
51867;DHT22;52862;52.504;13.480;2023-04-01T09:48:24;10.90;99.90
51867;DHT22;52862;52.504;13.480;2023-04-01T09:51:05;11.00;99.90
51867;DHT22;52862;52.504;13.480;2023-04-01T09:53:47;11.10;99.90
51867;DHT22;52862;52.504;13.480;2023-04-01T10:03:02;10.90;99.90
51867;DHT22;52862;52.504;13.480;2023-04-01T10:12:08;11.30;99.90
51867;DHT22;52862;52.504;13.480;2023-04-01T10:15:11;10.30;99.90
51867;DHT22;52862;52.504;13.480;2023-04-01T10:21:12;10.30;99.90
51867;DHT22;52862;52.504;13.480;2023-04-01T10:24:18;10.40;99.90
51867;DHT22;52862;52.504;13.480;2023-04-01T10:27:10;10.60;99.90
51867;DHT22;52862;52.504;13.480;2023-04-01T10:30:13;10.40;99.90
51867;DHT22;52862;52.504;13.480;2023-04-01T10:36:17;10.20;99.90
51867;DHT22;52862;52.504;13.480;2023-04-01T10:39:19;10.40;99.90
51867;DHT22;52862;52.504;13.480;2023-04-01T10:48:13;10.30;99.90
51867;DHT22;52862;52.504;13.480;2023-04-01T10:51:06;10.20;99.90
51867;DHT22;52862;52.504;13.480;2023-04-01T10:53:49;10.00;99.90
51867;DHT22;52862;52.504;13.480;2023-04-01T10:56:47;10.30;99.90
51867;DHT22;52862;52.504;13.480;2023-04-01T11:05:55;10.40;99.90
51867;DHT22;52862;52.504;13.480;2023-04-01T11:12:20;10.10;99.90
51867;DHT22;52862;52.504;13.480;2023-04-01T11:26:58;10.20;99.90
51867;DHT22;52862;52.504;13.480;2023-04-01T11:29:40;10.20;99.90
51867;DHT22;52862;52.504;13.480;2023-04-01T11:32:43;9.60;99.90
51867;DHT22;52862;52.504;13.480;2023-04-01T11:35:47;10.10;99.90
51867;DHT22;52862;52.504;13.480;2023-04-01T11:38:26;10.20;99.90
51867;DHT22;52862;52.504;13.480;2023-04-01T11:41:02;11.60;99.90
51867;DHT22;52862;52.504;13.480;2023-04-01T11:43:38;10.10;99.90
51867;DHT22;52862;52.504;13.480;2023-04-01T11:46:11;10.00;99.90
51867;DHT22;52862;52.504;13.480;2023-04-01T11:48:49;10.00;99.90
51867;DHT22;52862;52.504;13.480;2023-04-01T11:51:37;10.00;99.90
51867;DHT22;52862;52.504;13.480;2023-04-01T11:54:19;9.90;99.90
51867;DHT22;52862;52.504;13.480;2023-04-01T11:57:03;9.80;99.90
51867;DHT22;52862;52.504;13.480;2023-04-01T11:59:54;10.00;99.90
51867;DHT22;52862;52.504;13.480;2023-04-01T12:02:33;10.00;99.90
51867;DHT22;52862;52.504;13.480;2023-04-01T12:05:28;9.90;99.90
51867;DHT22;52862;52.504;13.480;2023-04-01T12:08:09;9.80;99.90
51867;DHT22;52862;52.504;13.480;2023-04-01T12:10:40;9.70;99.90
51867;DHT22;52862;52.504;13.480;2023-04-01T12:13:21;9.70;99.90
51867;DHT22;52862;52.504;13.480;2023-04-01T12:16:03;9.60;99.90
51867;DHT22;52862;52.504;13.480;2023-04-01T12:18:36;9.60;99.90
51867;DHT22;52862;52.504;13.480;2023-04-01T12:21:14;9.60;99.90
51867;DHT22;52862;52.504;13.480;2023-04-01T12:24:03;9.90;99.90
51867;DHT22;52862;52.504;13.480;2023-04-01T12:26:52;9.60;99.90
51867;DHT22;52862;52.504;13.480;2023-04-01T12:29:41;9.50;99.90
51867;DHT22;52862;52.504;13.480;2023-04-01T12:32:15;9.60;99.90
51867;DHT22;52862;52.504;13.480;2023-04-01T12:34:58;9.60;99.90
51867;DHT22;52862;52.504;13.480;2023-04-01T12:37:36;9.60;99.90
51867;DHT22;52862;52.504;13.480;2023-04-01T12:40:24;9.70;99.90
51867;DHT22;52862;52.504;13.480;2023-04-01T12:43:03;9.80;99.90
51867;DHT22;52862;52.504;13.480;2023-04-01T12:45:38;9.90;99.90
51867;DHT22;52862;52.504;13.480;2023-04-01T12:57:48;10.00;99.90
51867;DHT22;52862;52.504;13.480;2023-04-01T13:00:35;9.90;99.90
51867;DHT22;52862;52.504;13.480;2023-04-01T13:03:22;9.90;99.90
51867;DHT22;52862;52.504;13.480;2023-04-01T13:06:25;9.80;99.90
51867;DHT22;52862;52.504;13.480;2023-04-01T13:09:25;9.50;99.90
51867;DHT22;52862;52.504;13.480;2023-04-01T13:12:19;9.90;99.90
51867;DHT22;52862;52.504;13.480;2023-04-01T13:15:03;10.00;99.90
51867;DHT22;52862;52.504;13.480;2023-04-01T13:17:38;9.90;99.90
51867;DHT22;52862;52.504;13.480;2023-04-01T13:20:14;9.80;99.90
51867;DHT22;52862;52.504;13.480;2023-04-01T13:22:52;9.80;99.90
51867;DHT22;52862;52.504;13.480;2023-04-01T13:25:38;9.70;99.90
51867;DHT22;52862;52.504;13.480;2023-04-01T13:28:11;9.50;99.90
51867;DHT22;52862;52.504;13.480;2023-04-01T13:30:44;9.40;99.90
51867;DHT22;52862;52.504;13.480;2023-04-01T13:33:19;9.50;99.90
51867;DHT22;52862;52.504;13.480;2023-04-01T13:36:02;9.40;99.90
51867;DHT22;52862;52.504;13.480;2023-04-01T13:38:58;9.40;99.90
51867;DHT22;52862;52.504;13.480;2023-04-01T13:41:41;9.40;99.90
51867;DHT22;52862;52.504;13.480;2023-04-01T13:44:17;9.20;99.90
51867;DHT22;52862;52.504;13.480;2023-04-01T13:47:04;9.20;99.90
51867;DHT22;52862;52.504;13.480;2023-04-01T13:52:56;9.10;99.90
51867;DHT22;52862;52.504;13.480;2023-04-01T13:55:39;9.10;99.90
51867;DHT22;52862;52.504;13.480;2023-04-01T14:01:30;9.20;99.90
51867;DHT22;52862;52.504;13.480;2023-04-01T14:04:30;9.10;99.90
51867;DHT22;52862;52.504;13.480;2023-04-01T14:07:11;9.00;99.90
51867;DHT22;52862;52.504;13.480;2023-04-01T14:10:02;9.00;99.90
51867;DHT22;52862;52.504;13.480;2023-04-01T14:12:38;8.80;99.90
51867;DHT22;52862;52.504;13.480;2023-04-01T14:15:25;8.90;99.90
51867;DHT22;52862;52.504;13.480;2023-04-01T14:18:19;9.20;99.90
51867;DHT22;52862;52.504;13.480;2023-04-01T14:20:54;9.00;99.90
51867;DHT22;52862;52.504;13.480;2023-04-01T14:23:41;9.10;99.90
51867;DHT22;52862;52.504;13.480;2023-04-01T14:26:34;8.90;99.90
51867;DHT22;52862;52.504;13.480;2023-04-01T14:29:12;9.00;99.90
51867;DHT22;52862;52.504;13.480;2023-04-01T14:31:51;9.00;99.90
51867;DHT22;52862;52.504;13.480;2023-04-01T14:34:44;9.30;99.90
51867;DHT22;52862;52.504;13.480;2023-04-01T14:37:36;9.20;99.90
51867;DHT22;52862;52.504;13.480;2023-04-01T14:40:21;9.30;99.90
51867;DHT22;52862;52.504;13.480;2023-04-01T14:43:15;9.70;99.90
51867;DHT22;52862;52.504;13.480;2023-04-01T14:49:01;9.20;99.90
51867;DHT22;52862;52.504;13.480;2023-04-01T14:51:31;9.10;99.90
51867;DHT22;52862;52.504;13.480;2023-04-01T14:54:04;8.90;99.90
51867;DHT22;52862;52.504;13.480;2023-04-01T14:56:40;8.90;99.90
51867;DHT22;52862;52.504;13.480;2023-04-01T14:59:14;8.80;99.90
51867;DHT22;52862;52.504;13.480;2023-04-01T15:01:47;9.00;99.90
51867;DHT22;52862;52.504;13.480;2023-04-01T15:04:47;8.80;99.90
51867;DHT22;52862;52.504;13.480;2023-04-01T15:10:31;8.70;99.90
51867;DHT22;52862;52.504;13.480;2023-04-01T15:13:08;9.00;99.90
51867;DHT22;52862;52.504;13.480;2023-04-01T15:15:49;8.70;99.90
51867;DHT22;52862;52.504;13.480;2023-04-01T15:18:31;9.00;99.90
51867;DHT22;52862;52.504;13.480;2023-04-01T15:21:16;8.70;99.90
51867;DHT22;52862;52.504;13.480;2023-04-01T15:23:54;8.60;99.90
51867;DHT22;52862;52.504;13.480;2023-04-01T15:29:35;8.00;99.90
51867;DHT22;52862;52.504;13.480;2023-04-01T15:32:17;8.40;99.90
51867;DHT22;52862;52.504;13.480;2023-04-01T15:34:52;8.30;99.90
51867;DHT22;52862;52.504;13.480;2023-04-01T15:37:31;8.30;99.90
51867;DHT22;52862;52.504;13.480;2023-04-01T15:40:11;8.30;99.90
51867;DHT22;52862;52.504;13.480;2023-04-01T15:42:53;8.80;99.90
51867;DHT22;52862;52.504;13.480;2023-04-01T15:45:38;8.20;99.90
51867;DHT22;52862;52.504;13.480;2023-04-01T15:48:22;8.20;99.90
51867;DHT22;52862;52.504;13.480;2023-04-01T15:51:06;9.10;99.90
51867;DHT22;52862;52.504;13.480;2023-04-01T15:56:48;8.00;99.90
51867;DHT22;52862;52.504;13.480;2023-04-01T15:59:30;7.90;99.90
51867;DHT22;52862;52.504;13.480;2023-04-01T16:02:01;7.90;99.90
51867;DHT22;52862;52.504;13.480;2023-04-01T16:04:50;7.90;99.90
51867;DHT22;52862;52.504;13.480;2023-04-01T16:07:48;7.90;99.90
51867;DHT22;52862;52.504;13.480;2023-04-01T16:10:34;7.80;99.90
51867;DHT22;52862;52.504;13.480;2023-04-01T16:13:21;7.80;99.90
51867;DHT22;52862;52.504;13.480;2023-04-01T16:15:54;7.80;99.90
51867;DHT22;52862;52.504;13.480;2023-04-01T16:18:32;7.70;99.90
51867;DHT22;52862;52.504;13.480;2023-04-01T16:21:06;8.00;99.90
51867;DHT22;52862;52.504;13.480;2023-04-01T16:23:37;7.40;99.90
51867;DHT22;52862;52.504;13.480;2023-04-01T16:26:15;6.80;99.90
51867;DHT22;52862;52.504;13.480;2023-04-01T16:28:53;7.60;99.90
51867;DHT22;52862;52.504;13.480;2023-04-01T16:31:31;7.70;99.90
51867;DHT22;52862;52.504;13.480;2023-04-01T16:34:02;7.50;99.90
51867;DHT22;52862;52.504;13.480;2023-04-01T16:36:34;7.50;99.90
51867;DHT22;52862;52.504;13.480;2023-04-01T16:39:17;7.50;99.90
51867;DHT22;52862;52.504;13.480;2023-04-01T16:41:49;7.30;99.90
51867;DHT22;52862;52.504;13.480;2023-04-01T16:44:21;7.50;99.90
51867;DHT22;52862;52.504;13.480;2023-04-01T16:46:51;7.30;99.90
51867;DHT22;52862;52.504;13.480;2023-04-01T16:49:27;7.40;99.90
51867;DHT22;52862;52.504;13.480;2023-04-01T16:52:04;7.20;99.90
51867;DHT22;52862;52.504;13.480;2023-04-01T16:54:43;7.20;99.90
51867;DHT22;52862;52.504;13.480;2023-04-01T16:57:21;7.30;99.90
51867;DHT22;52862;52.504;13.480;2023-04-01T16:59:59;7.00;99.90
51867;DHT22;52862;52.504;13.480;2023-04-01T17:02:31;7.00;99.90
51867;DHT22;52862;52.504;13.480;2023-04-01T17:05:03;7.10;99.90
51867;DHT22;52862;52.504;13.480;2023-04-01T17:07:40;7.10;99.90
51867;DHT22;52862;52.504;13.480;2023-04-01T17:10:32;7.10;99.90
51867;DHT22;52862;52.504;13.480;2023-04-01T17:13:29;7.00;99.90
51867;DHT22;52862;52.504;13.480;2023-04-01T17:16:13;6.90;99.90
51867;DHT22;52862;52.504;13.480;2023-04-01T17:18:49;6.60;99.90
51867;DHT22;52862;52.504;13.480;2023-04-01T17:21:22;6.90;99.90
51867;DHT22;52862;52.504;13.480;2023-04-01T17:23:53;6.90;99.90
51867;DHT22;52862;52.504;13.480;2023-04-01T17:26:28;6.80;99.90
51867;DHT22;52862;52.504;13.480;2023-04-01T17:29:05;6.60;99.90
51867;DHT22;52862;52.504;13.480;2023-04-01T17:31:41;6.80;99.90
51867;DHT22;52862;52.504;13.480;2023-04-01T17:34:31;6.40;99.90
51867;DHT22;52862;52.504;13.480;2023-04-01T17:37:09;6.70;99.90
51867;DHT22;52862;52.504;13.480;2023-04-01T17:39:49;6.30;99.90
51867;DHT22;52862;52.504;13.480;2023-04-01T17:42:25;6.40;99.90
51867;DHT22;52862;52.504;13.480;2023-04-01T17:45:03;6.30;99.90
51867;DHT22;52862;52.504;13.480;2023-04-01T17:47:43;6.70;99.90
51867;DHT22;52862;52.504;13.480;2023-04-01T17:50:24;6.10;99.90
51867;DHT22;52862;52.504;13.480;2023-04-01T17:53:12;6.30;99.90
51867;DHT22;52862;52.504;13.480;2023-04-01T17:55:47;6.40;99.90
51867;DHT22;52862;52.504;13.480;2023-04-01T17:58:19;6.20;99.90
51867;DHT22;52862;52.504;13.480;2023-04-01T18:00:54;6.20;99.90
51867;DHT22;52862;52.504;13.480;2023-04-01T18:03:44;6.10;99.90
51867;DHT22;52862;52.504;13.480;2023-04-01T18:06:20;6.40;99.90